createdAt,value
2019-02-24T00:01:47.464Z,6.83
2019-02-24T00:07:07.189Z,7.00
2019-02-24T00:09:57.024Z,7.17
2019-02-24T00:12:43.015Z,7.87
2019-02-24T00:15:38.543Z,7.10
2019-02-24T00:18:19.923Z,6.93
2019-02-24T00:21:14.687Z,8.30
2019-02-24T00:23:42.764Z,8.00
2019-02-24T00:26:20.636Z,8.33
2019-02-24T00:32:30.088Z,8.30
2019-02-24T00:38:02.310Z,8.57
2019-02-24T00:40:36.288Z,7.93
2019-02-24T00:43:04.264Z,8.47
2019-02-24T00:46:24.808Z,8.97
2019-02-24T00:49:26.782Z,8.10
2019-02-24T00:51:50.355Z,8.33
2019-02-24T00:55:23.722Z,9.30
2019-02-24T00:58:04.556Z,8.77
2019-02-24T01:00:41.771Z,9.37
2019-02-24T01:03:09.797Z,9.80
2019-02-24T01:05:38.638Z,9.07
2019-02-24T01:08:08.623Z,9.60
2019-02-24T01:10:36.207Z,9.93
2019-02-24T01:13:06.857Z,9.20
2019-02-24T01:16:04.657Z,9.50
2019-02-24T01:18:34.011Z,8.77
2019-02-24T01:21:01.386Z,9.97
2019-02-24T01:23:31.988Z,10.47
2019-02-24T01:25:59.250Z,9.90
2019-02-24T01:28:26.612Z,9.63
2019-02-24T01:30:53.990Z,9.73
2019-02-24T01:33:21.545Z,10.43
2019-02-24T01:35:51.663Z,9.93
2019-02-24T01:38:19.700Z,10.50
2019-02-24T01:41:05.842Z,10.50
2019-02-24T01:43:38.463Z,10.63
2019-02-24T01:46:16.441Z,10.60
2019-02-24T01:48:44.338Z,10.30
2019-02-24T01:51:14.240Z,11.03
2019-02-24T02:03:03.080Z,10.37
2019-02-24T02:06:18.307Z,10.40
2019-02-24T02:09:58.541Z,10.67
2019-02-24T02:52:02.921Z,13.73
2019-02-24T03:09:48.584Z,13.60
2019-02-24T03:12:20.040Z,13.00
2019-02-24T03:15:51.456Z,14.23
2019-02-24T03:18:34.575Z,14.17
2019-02-24T03:39:06.770Z,12.70
2019-02-24T03:46:53.881Z,14.10
2019-02-24T03:49:31.102Z,14.63
2019-02-24T03:52:22.693Z,13.00
2019-02-24T03:58:41.959Z,12.77
2019-02-24T04:05:00.895Z,10.67
2019-02-24T04:05:22.641Z,11.77
2019-02-24T04:14:38.132Z,14.00
2019-02-24T04:17:06.414Z,13.87
2019-02-24T04:22:53.044Z,14.20
2019-02-24T04:26:11.108Z,15.17
2019-02-24T04:29:04.714Z,14.50
2019-02-24T04:40:56.747Z,15.37
2019-02-24T04:47:26.330Z,15.03
2019-02-24T04:53:26.515Z,14.80
2019-02-24T04:56:50.415Z,16.30
2019-02-24T05:02:56.639Z,17.07
2019-02-24T05:05:41.376Z,16.07
2019-02-24T05:08:17.728Z,13.13
2019-02-24T05:10:51.335Z,14.40
2019-02-24T05:13:21.639Z,14.77
2019-02-24T05:16:01.292Z,12.63
2019-02-24T05:18:34.605Z,11.03
2019-02-24T05:23:59.734Z,13.63
2019-02-24T05:32:50.954Z,12.50
2019-02-24T05:35:37.490Z,13.43
2019-02-24T05:38:50.908Z,13.40
2019-02-24T05:45:45.538Z,11.37
2019-02-24T05:48:15.399Z,12.77
2019-02-24T05:54:20.208Z,15.03
2019-02-24T05:57:22.903Z,13.77
2019-02-24T05:59:28.712Z,13.13
2019-02-24T05:59:55.493Z,14.20
2019-02-24T06:03:04.868Z,15.97
2019-02-24T06:08:52.107Z,16.97
2019-02-24T06:11:37.282Z,15.17
2019-02-24T06:17:01.087Z,16.13
2019-02-24T06:19:49.876Z,16.17
2019-02-24T06:22:17.655Z,15.90
2019-02-24T06:24:46.620Z,16.73
2019-02-24T06:27:15.880Z,18.43
2019-02-24T06:29:52.134Z,17.30
2019-02-24T06:32:31.750Z,16.40
2019-02-24T06:35:09.989Z,16.83
2019-02-24T06:37:48.790Z,14.93
2019-02-24T06:40:46.457Z,15.53
2019-02-24T06:46:39.569Z,15.37
2019-02-24T06:49:38.964Z,17.17
2019-02-24T07:01:09.643Z,20.67
2019-02-24T07:03:52.224Z,19.80
2019-02-24T07:06:44.951Z,16.40
2019-02-24T07:09:51.878Z,15.90
2019-02-24T07:12:42.027Z,17.67
2019-02-24T07:19:04.617Z,18.97
2019-02-24T07:21:35.152Z,16.70
2019-02-24T07:24:40.391Z,18.67
2019-02-24T07:28:17.513Z,20.10
2019-02-24T07:31:08.539Z,18.20
2019-02-24T07:33:38.674Z,19.60
2019-02-24T07:36:06.853Z,18.77
2019-02-24T07:39:12.078Z,19.57
2019-02-24T07:41:59.937Z,17.40
2019-02-24T07:44:29.512Z,17.07
2019-02-24T07:47:16.826Z,17.63
2019-02-24T07:49:53.849Z,17.00
2019-02-24T07:52:23.535Z,15.00
2019-02-24T08:04:42.163Z,15.83
2019-02-24T08:11:11.217Z,18.33
2019-02-24T08:13:41.146Z,17.67
2019-02-24T08:16:09.607Z,17.40
2019-02-24T08:31:01.553Z,17.03
2019-02-24T08:40:38.824Z,13.30
2019-02-24T08:46:39.166Z,16.77
2019-02-24T08:49:06.404Z,16.70
2019-02-24T08:51:33.631Z,17.17
2019-02-24T08:54:00.953Z,16.60
2019-02-24T08:56:28.301Z,17.07
2019-02-24T08:58:55.504Z,9.43
2019-02-24T09:01:22.849Z,15.90
2019-02-24T09:03:50.152Z,15.17
2019-02-24T09:06:17.499Z,16.67
2019-02-24T09:08:45.007Z,16.70
2019-02-24T09:11:12.305Z,16.60
2019-02-24T09:13:39.657Z,17.30
2019-02-24T09:16:07.002Z,16.17
2019-02-24T09:18:34.320Z,14.33
2019-02-24T09:21:01.657Z,15.73
2019-02-24T09:23:28.989Z,16.23
2019-02-24T09:25:56.382Z,16.83
2019-02-24T09:28:23.680Z,16.37
2019-02-24T09:31:00.218Z,16.93
2019-02-24T09:33:20.251Z,15.07
2019-02-24T09:35:47.462Z,15.90
2019-02-24T09:38:14.679Z,17.73
2019-02-24T09:40:42.024Z,17.13
2019-02-24T09:43:09.326Z,18.40
2019-02-24T09:45:36.655Z,15.60
2019-02-24T09:48:04.002Z,14.80
2019-02-24T09:50:31.311Z,15.60
2019-02-24T09:52:58.690Z,16.63
2019-02-24T09:55:25.992Z,14.00
2019-02-24T09:57:53.311Z,17.07
2019-02-24T10:00:22.029Z,18.03
2019-02-24T10:02:49.493Z,16.70
2019-02-24T10:05:16.840Z,16.67
2019-02-24T10:07:44.127Z,16.07
2019-02-24T10:10:11.493Z,13.10
2019-02-24T10:12:38.804Z,15.10
2019-02-24T10:15:06.567Z,11.63
2019-02-24T10:17:33.850Z,16.40
2019-02-24T10:20:01.174Z,16.73
2019-02-24T10:22:28.511Z,18.73
2019-02-24T10:24:55.850Z,15.43
2019-02-24T10:27:23.363Z,17.20
2019-02-24T10:29:50.591Z,17.70
2019-02-24T10:32:17.892Z,16.47
2019-02-24T10:34:45.250Z,12.90
2019-02-24T10:37:12.553Z,16.70
2019-02-24T10:39:39.863Z,17.17
2019-02-24T10:42:07.126Z,17.43
2019-02-24T10:44:34.445Z,17.83
2019-02-24T10:47:02.411Z,17.57
2019-02-24T10:49:29.818Z,17.80
2019-02-24T10:51:57.204Z,16.47
2019-02-24T10:54:24.399Z,16.73
2019-02-24T10:56:51.610Z,17.80
2019-02-24T10:59:18.940Z,10.03
2019-02-24T11:01:46.247Z,16.47
2019-02-24T11:04:13.587Z,17.20
2019-02-24T11:06:40.811Z,14.37
2019-02-24T11:09:08.247Z,18.40
2019-02-24T11:11:35.603Z,17.00
2019-02-24T11:14:02.849Z,16.63
2019-02-24T11:16:32.153Z,16.23
2019-02-24T11:18:59.383Z,15.40
2019-02-24T11:21:26.709Z,13.77
2019-02-24T11:23:54.011Z,16.03
2019-02-24T11:26:21.252Z,12.23
2019-02-24T11:28:48.348Z,11.20
2019-02-24T11:31:15.589Z,11.70
2019-02-24T11:33:42.916Z,9.20
2019-02-24T11:36:10.342Z,10.57
2019-02-24T11:38:37.559Z,15.07
2019-02-24T11:41:04.890Z,11.03
2019-02-24T11:43:32.235Z,15.07
2019-02-24T11:45:59.537Z,11.53
2019-02-24T11:48:27.072Z,10.90
2019-02-24T11:50:54.467Z,13.23
2019-02-24T11:53:21.789Z,14.53
2019-02-24T11:55:49.172Z,11.10
2019-02-24T11:58:16.383Z,14.83
2019-02-24T12:00:43.728Z,15.27
2019-02-24T12:03:11.056Z,13.27
2019-02-24T12:05:38.266Z,13.60
2019-02-24T12:08:05.573Z,9.87
2019-02-24T12:10:32.901Z,11.67
2019-02-24T12:13:00.396Z,12.53
2019-02-24T12:15:27.751Z,11.60
2019-02-24T12:17:55.079Z,13.50
2019-02-24T12:20:22.491Z,11.83
2019-02-24T12:22:49.835Z,10.70
2019-02-24T12:25:17.130Z,13.33
2019-02-24T12:27:44.455Z,14.37
2019-02-24T12:30:11.785Z,14.33
2019-02-24T12:32:39.118Z,14.23
2019-02-24T12:35:06.481Z,14.47
2019-02-24T12:37:33.780Z,14.20
2019-02-24T12:40:01.070Z,11.90
2019-02-24T12:42:28.314Z,11.73
2019-02-24T12:44:55.652Z,12.00
2019-02-24T12:47:22.894Z,12.17
2019-02-24T12:49:50.188Z,12.03
2019-02-24T12:52:17.483Z,9.80
2019-02-24T12:54:44.779Z,14.53
2019-02-24T12:57:11.923Z,13.47
2019-02-24T12:59:39.215Z,15.20
2019-02-24T13:02:06.548Z,14.77
2019-02-24T13:04:33.783Z,12.43
2019-02-24T13:07:01.062Z,14.67
2019-02-24T13:09:28.205Z,17.07
2019-02-24T13:11:55.531Z,12.33
2019-02-24T13:14:22.850Z,12.00
2019-02-24T13:16:50.132Z,10.40
2019-02-24T13:19:17.479Z,16.33
2019-02-24T13:21:46.427Z,17.03
2019-02-24T13:24:13.788Z,17.57
2019-02-24T13:26:41.091Z,17.17
2019-02-24T13:29:08.359Z,17.67
2019-02-24T13:31:35.682Z,14.63
2019-02-24T13:34:02.914Z,17.43
2019-02-24T13:36:30.240Z,18.40
2019-02-24T13:38:58.321Z,15.43
2019-02-24T13:41:25.686Z,21.17
2019-02-24T13:43:52.911Z,22.47
2019-02-24T13:46:20.227Z,24.13
2019-02-24T13:48:47.568Z,18.93
2019-02-24T13:51:14.818Z,21.27
2019-02-24T13:53:42.102Z,23.57
2019-02-24T13:56:09.343Z,23.13
2019-02-24T13:58:36.637Z,23.23
2019-02-24T14:01:04.012Z,26.33
2019-02-24T14:03:31.314Z,27.67
2019-02-24T14:05:58.643Z,28.37
2019-02-24T14:08:27.694Z,25.33
2019-02-24T14:10:55.125Z,17.90
2019-02-24T14:13:22.464Z,23.73
2019-02-24T14:15:49.759Z,16.53
2019-02-24T14:18:17.105Z,20.37
2019-02-24T14:20:44.408Z,25.37
2019-02-24T14:23:11.611Z,25.97
2019-02-24T14:25:38.854Z,26.47
2019-02-24T14:28:06.056Z,18.93
2019-02-24T14:30:33.309Z,18.40
2019-02-24T14:33:00.616Z,16.77
2019-02-24T14:35:27.919Z,25.43
2019-02-24T14:37:55.136Z,26.47
2019-02-24T14:40:22.364Z,18.03
2019-02-24T14:42:49.492Z,26.60
2019-02-24T14:45:16.839Z,25.53
2019-02-24T14:47:44.217Z,22.97
2019-02-24T14:50:11.507Z,26.17
2019-02-24T14:52:38.821Z,27.13
2019-02-24T14:55:06.770Z,25.63
2019-02-24T14:57:33.985Z,27.43
2019-02-24T15:00:01.323Z,23.63
2019-02-24T15:02:28.546Z,26.17
2019-02-24T15:04:55.993Z,26.17
2019-02-24T15:07:23.194Z,15.37
2019-02-24T15:09:50.589Z,25.90
2019-02-24T15:12:17.908Z,23.20
2019-02-24T15:14:45.340Z,21.63
2019-02-24T15:17:12.660Z,19.43
2019-02-24T15:19:40.152Z,24.87
2019-02-24T15:22:07.475Z,18.77
2019-02-24T15:24:34.963Z,18.27
2019-02-24T15:27:02.280Z,23.63
2019-02-24T15:29:29.610Z,22.03
2019-02-24T15:31:56.964Z,15.53
2019-02-24T15:34:24.295Z,24.23
2019-02-24T15:36:51.603Z,16.83
2019-02-24T15:39:18.968Z,16.13
2019-02-24T15:41:46.302Z,23.70
2019-02-24T15:44:13.677Z,16.67
2019-02-24T15:46:41.120Z,18.47
2019-02-24T15:49:08.700Z,17.23
2019-02-24T15:51:36.099Z,24.27
2019-02-24T15:54:03.388Z,23.07
2019-02-24T15:56:30.821Z,19.93
2019-02-24T15:58:58.121Z,15.67
2019-02-24T16:01:25.533Z,30.02
2019-02-24T16:03:52.997Z,22.70
2019-02-24T16:06:20.323Z,21.20
2019-02-24T16:08:47.658Z,24.57
2019-02-24T16:11:15.007Z,17.70
2019-02-24T16:13:42.304Z,25.80
2019-02-24T16:16:09.540Z,18.07
2019-02-24T16:18:36.865Z,24.33
2019-02-24T16:21:04.068Z,14.47
2019-02-24T16:23:31.320Z,22.23
2019-02-24T16:25:58.524Z,18.87
2019-02-24T16:28:25.842Z,15.80
2019-02-24T16:30:53.065Z,21.30
2019-02-24T16:33:20.396Z,15.50
2019-02-24T16:35:47.598Z,19.13
2019-02-24T16:38:14.907Z,12.63
2019-02-24T16:40:42.126Z,18.20
2019-02-24T16:43:09.379Z,22.23
2019-02-24T16:45:36.710Z,16.83
2019-02-24T16:48:04.006Z,16.10
2019-02-24T16:50:31.367Z,19.50
2019-02-24T16:52:58.695Z,21.10
2019-02-24T16:55:25.952Z,15.73
2019-02-24T16:57:53.244Z,22.17
2019-02-24T17:00:20.597Z,15.97
2019-02-24T17:02:48.032Z,22.10
2019-02-24T17:05:15.349Z,14.27
2019-02-24T17:07:42.679Z,20.37
2019-02-24T17:10:11.208Z,13.50
2019-02-24T17:12:38.552Z,13.03
2019-02-24T17:15:06.684Z,13.00
2019-02-24T17:17:34.018Z,19.33
2019-02-24T17:20:01.344Z,21.50
2019-02-24T17:22:28.655Z,23.00
2019-02-24T17:24:55.927Z,19.43
2019-02-24T17:27:23.289Z,19.13
2019-02-24T17:29:50.602Z,12.00
2019-02-24T17:32:17.843Z,16.13
2019-02-24T17:34:45.128Z,14.57
2019-02-24T17:37:19.838Z,14.37
2019-02-24T17:39:41.588Z,16.27
2019-02-24T17:42:08.919Z,17.43
2019-02-24T17:44:36.176Z,18.90
2019-02-24T17:47:03.480Z,20.03
2019-02-24T17:49:30.805Z,20.00
2019-02-24T17:51:58.166Z,11.73
2019-02-24T17:54:25.503Z,19.90
2019-02-24T17:56:52.807Z,19.67
2019-02-24T17:59:20.137Z,19.87
2019-02-24T18:01:47.476Z,18.13
2019-02-24T18:04:14.931Z,19.57
2019-02-24T18:06:42.138Z,13.33
2019-02-24T18:09:09.451Z,17.40
2019-02-24T18:11:36.699Z,16.60
2019-02-24T18:14:03.999Z,14.57
2019-02-24T18:16:31.204Z,19.40
2019-02-24T18:18:58.425Z,13.77
2019-02-24T18:21:25.655Z,8.23
2019-02-24T18:23:52.988Z,14.67
2019-02-24T18:26:20.295Z,17.63
2019-02-24T18:28:47.411Z,13.57
2019-02-24T18:31:14.619Z,16.17
2019-02-24T18:33:48.155Z,18.37
2019-02-24T18:36:11.218Z,16.60
2019-02-24T18:38:38.459Z,16.70
2019-02-24T18:41:05.708Z,16.53
2019-02-24T18:43:33.013Z,16.23
2019-02-24T18:46:00.239Z,15.87
2019-02-24T18:48:27.557Z,16.30
2019-02-24T18:50:54.900Z,15.33
2019-02-24T18:53:22.363Z,16.07
2019-02-24T18:55:49.711Z,15.60
2019-02-24T18:58:17.020Z,16.33
2019-02-24T19:00:44.360Z,13.33
2019-02-24T19:03:11.678Z,15.00
2019-02-24T19:05:39.024Z,15.63
2019-02-24T19:08:06.232Z,14.00
2019-02-24T19:10:33.484Z,15.20
2019-02-24T19:13:00.777Z,13.30
2019-02-24T19:15:28.211Z,11.93
2019-02-24T19:17:55.513Z,12.20
2019-02-24T19:20:22.883Z,14.20
2019-02-24T19:22:50.205Z,11.93
2019-02-24T19:25:17.599Z,12.17
2019-02-24T19:27:44.852Z,8.73
2019-02-24T19:30:13.036Z,11.67
2019-02-24T19:32:40.350Z,12.77
2019-02-24T19:35:08.209Z,12.90
2019-02-24T19:37:35.420Z,12.37
2019-02-24T19:40:03.257Z,13.80
2019-02-24T19:42:30.608Z,12.80
2019-02-24T19:44:57.813Z,12.43
2019-02-24T19:47:25.028Z,12.73
2019-02-24T19:49:52.400Z,11.67
2019-02-24T19:52:19.731Z,12.10
2019-02-24T19:54:46.719Z,13.43
2019-02-24T19:57:13.993Z,11.00
2019-02-24T19:59:41.291Z,11.90
2019-02-24T20:02:08.524Z,12.43
2019-02-24T20:04:35.729Z,11.93
2019-02-24T20:07:03.072Z,11.30
2019-02-24T20:09:30.384Z,12.03
2019-02-24T20:11:57.732Z,9.83
2019-02-24T20:14:25.064Z,12.43
2019-02-24T20:16:52.361Z,12.10
2019-02-24T20:19:19.617Z,11.77
2019-02-24T20:21:46.919Z,12.50
2019-02-24T20:24:14.172Z,12.27
2019-02-24T20:26:41.450Z,11.63
2019-02-24T20:29:08.695Z,11.97
2019-02-24T20:31:35.902Z,12.47
2019-02-24T20:34:03.253Z,13.30
2019-02-24T20:36:30.485Z,11.23
2019-02-24T20:38:57.780Z,11.43
2019-02-24T20:41:25.021Z,11.03
2019-02-24T20:43:54.577Z,11.67
2019-02-24T20:46:21.925Z,10.13
2019-02-24T20:48:49.257Z,11.27
2019-02-24T20:51:16.489Z,12.17
2019-02-24T20:53:43.727Z,11.40
2019-02-24T20:56:10.947Z,10.27
2019-02-24T20:58:38.209Z,11.07
2019-02-24T21:01:10.025Z,10.37
2019-02-24T21:03:37.646Z,9.77
2019-02-24T21:06:04.992Z,9.70
2019-02-24T21:08:32.275Z,6.70
2019-02-24T21:10:59.607Z,11.67
2019-02-24T21:13:26.815Z,11.20
2019-02-24T21:15:54.064Z,11.80
2019-02-24T21:18:21.380Z,11.60
2019-02-24T21:20:48.716Z,12.67
2019-02-24T21:23:15.910Z,11.80
2019-02-24T21:25:43.243Z,11.60
2019-02-24T21:28:10.488Z,11.07
2019-02-24T21:30:37.785Z,11.80
2019-02-24T21:33:05.130Z,12.23
2019-02-24T21:35:32.419Z,11.00
2019-02-24T21:37:59.516Z,10.50
2019-02-24T21:40:26.856Z,11.20
2019-02-24T21:42:54.144Z,10.83
2019-02-24T21:45:21.502Z,10.97
2019-02-24T21:47:48.812Z,10.80
2019-02-24T21:50:16.163Z,9.50
2019-02-24T21:52:43.398Z,9.70
2019-02-24T21:55:11.063Z,8.70
2019-02-24T21:57:38.356Z,9.37
2019-02-24T22:00:09.015Z,7.73
2019-02-24T22:02:36.216Z,7.53
2019-02-24T22:05:03.991Z,9.20
2019-02-24T22:07:31.687Z,9.83
2019-02-24T22:09:58.980Z,10.37
2019-02-24T22:12:26.076Z,9.77
2019-02-24T22:14:53.443Z,9.70
2019-02-24T22:17:20.744Z,10.37
2019-02-24T22:19:48.108Z,8.70
2019-02-24T22:22:15.313Z,9.07
2019-02-24T22:24:42.552Z,10.43
2019-02-24T22:27:09.857Z,10.27
2019-02-24T22:29:37.075Z,7.33
2019-02-24T22:32:04.394Z,8.60
2019-02-24T22:34:31.606Z,10.00
2019-02-24T22:36:58.935Z,5.60
2019-02-24T22:39:26.167Z,10.67
2019-02-24T22:41:53.600Z,10.13
2019-02-24T22:44:20.870Z,10.40
2019-02-24T22:46:48.177Z,9.83
2019-02-24T22:49:15.552Z,6.43
2019-02-24T22:51:42.878Z,10.20
2019-02-24T22:54:10.176Z,9.17
2019-02-24T22:56:37.515Z,9.13
2019-02-24T22:59:04.904Z,10.10
2019-02-24T23:01:35.019Z,9.87
2019-02-24T23:04:06.965Z,9.03
2019-02-24T23:06:34.291Z,9.17
2019-02-24T23:09:04.448Z,7.97
2019-02-24T23:11:31.779Z,7.97
2019-02-24T23:13:59.078Z,8.50
2019-02-24T23:16:26.324Z,8.23
2019-02-24T23:18:53.448Z,6.60
2019-02-24T23:21:20.767Z,7.97
2019-02-24T23:23:47.999Z,6.50
2019-02-24T23:26:15.280Z,4.13
2019-02-24T23:28:42.476Z,4.63
2019-02-24T23:31:09.620Z,4.70
2019-02-24T23:33:37.056Z,7.93
2019-02-24T23:36:04.468Z,7.83
2019-02-24T23:38:31.785Z,6.60
2019-02-24T23:40:59.020Z,6.00
2019-02-24T23:43:26.232Z,6.20
2019-02-24T23:45:53.567Z,6.30
2019-02-24T23:48:20.770Z,7.40
2019-02-24T23:50:48.100Z,6.87
2019-02-24T23:53:15.291Z,6.67
2019-02-24T23:55:42.523Z,6.23
2019-02-24T23:58:09.758Z,7.77
